createdAt,value
2019-01-09T00:01:24.455Z,68.57
2019-01-09T00:04:28.316Z,68.56
2019-01-09T00:07:32.291Z,68.33
2019-01-09T00:10:36.176Z,68.51
2019-01-09T00:13:40.074Z,68.25
2019-01-09T00:16:43.977Z,68.64
2019-01-09T00:19:47.923Z,68.78
2019-01-09T00:22:51.797Z,68.30
2019-01-09T00:25:55.728Z,67.62
2019-01-09T00:28:59.701Z,67.84
2019-01-09T00:32:03.612Z,67.71
2019-01-09T00:35:07.567Z,67.91
2019-01-09T00:38:11.549Z,67.96
2019-01-09T00:41:15.425Z,67.53
2019-01-09T00:44:19.330Z,67.64
2019-01-09T00:47:23.191Z,67.50
2019-01-09T00:50:27.176Z,67.65
2019-01-09T00:53:31.136Z,67.91
2019-01-09T00:56:35.082Z,68.19
2019-01-09T00:59:39.019Z,68.07
2019-01-09T01:03:32.638Z,68.42
2019-01-09T01:07:06.217Z,68.23
2019-01-09T01:10:45.720Z,68.29
2019-01-09T01:14:17.226Z,68.69
2019-01-09T01:17:51.003Z,68.10
2019-01-09T01:21:02.561Z,68.04
2019-01-09T01:24:45.813Z,67.93
2019-01-09T01:28:18.103Z,68.25
2019-01-09T01:31:55.090Z,68.25
2019-01-09T01:35:38.924Z,68.03
2019-01-09T01:39:19.053Z,68.25
2019-01-09T01:43:22.068Z,68.57
2019-01-09T01:47:10.193Z,68.66
2019-01-09T01:50:41.368Z,68.96
2019-01-09T01:54:12.025Z,69.34
2019-01-09T01:57:55.222Z,69.10
2019-01-09T02:01:37.840Z,68.93
2019-01-09T02:05:14.434Z,68.49
2019-01-09T02:09:05.698Z,67.44
2019-01-09T02:12:49.609Z,67.96
2019-01-09T02:16:30.676Z,68.98
2019-01-09T02:19:43.527Z,69.27
2019-01-09T02:23:12.001Z,69.83
2019-01-09T02:26:29.645Z,69.63
2019-01-09T02:30:03.785Z,69.23
2019-01-09T02:33:07.566Z,68.89
2019-01-09T02:36:13.580Z,68.92
2019-01-09T02:39:16.990Z,68.30
2019-01-09T02:42:20.889Z,68.35
2019-01-09T02:45:24.688Z,68.50
2019-01-09T02:48:28.521Z,68.43
2019-01-09T02:51:32.402Z,68.45
2019-01-09T02:54:36.220Z,68.80
2019-01-09T02:57:40.016Z,68.96
2019-01-09T03:00:43.831Z,68.63
2019-01-09T03:03:47.621Z,68.65
2019-01-09T03:06:51.425Z,68.73
2019-01-09T03:09:55.313Z,68.26
2019-01-09T03:12:59.194Z,67.49
2019-01-09T03:16:03.150Z,67.70
2019-01-09T03:19:07.039Z,68.27
2019-01-09T03:22:10.982Z,67.70
2019-01-09T03:25:14.944Z,68.06
2019-01-09T03:28:18.797Z,68.24
2019-01-09T03:31:22.673Z,67.78
2019-01-09T03:34:26.544Z,67.82
2019-01-09T03:37:30.429Z,67.92
2019-01-09T03:40:34.304Z,67.93
2019-01-09T03:43:38.184Z,67.99
2019-01-09T03:46:42.128Z,67.93
2019-01-09T03:49:46.007Z,68.41
2019-01-09T03:52:49.817Z,68.30
2019-01-09T03:55:53.633Z,68.33
2019-01-09T03:58:57.608Z,68.55
2019-01-09T04:02:01.514Z,68.34
2019-01-09T04:05:05.491Z,67.62
2019-01-09T04:08:09.316Z,67.60
2019-01-09T04:11:13.130Z,67.67
2019-01-09T04:14:17.089Z,67.34
2019-01-09T04:17:20.893Z,67.31
2019-01-09T04:20:24.766Z,67.35
2019-01-09T04:23:28.598Z,67.15
2019-01-09T04:26:32.405Z,67.74
2019-01-09T04:29:36.232Z,67.64
2019-01-09T04:32:40.095Z,67.78
2019-01-09T04:35:43.843Z,67.55
2019-01-09T04:38:47.707Z,68.02
2019-01-09T04:41:51.557Z,68.32
2019-01-09T04:44:55.339Z,68.17
2019-01-09T04:47:59.143Z,68.18
2019-01-09T04:51:02.959Z,68.41
2019-01-09T04:54:06.842Z,68.67
2019-01-09T04:57:10.664Z,68.61
2019-01-09T05:00:14.533Z,68.30
2019-01-09T05:03:18.339Z,68.52
2019-01-09T05:06:22.128Z,68.31
2019-01-09T05:09:25.931Z,68.17
2019-01-09T05:12:29.742Z,68.35
2019-01-09T05:15:33.557Z,68.41
2019-01-09T05:18:37.483Z,68.61
2019-01-09T05:21:41.274Z,68.95
2019-01-09T05:24:45.706Z,68.86
2019-01-09T05:27:49.765Z,68.93
2019-01-09T05:30:53.591Z,69.14
2019-01-09T05:33:57.430Z,68.91
2019-01-09T05:37:09.190Z,69.23
2019-01-09T05:40:06.889Z,68.62
2019-01-09T05:43:10.689Z,69.12
2019-01-09T05:46:14.504Z,68.81
2019-01-09T05:49:18.305Z,68.66
2019-01-09T05:52:22.095Z,68.33
2019-01-09T05:55:25.868Z,68.48
2019-01-09T05:58:29.673Z,68.66
2019-01-09T06:01:33.536Z,68.60
2019-01-09T06:04:37.351Z,68.82
2019-01-09T06:07:41.314Z,68.71
2019-01-09T06:10:45.111Z,69.02
2019-01-09T06:13:48.939Z,69.21
2019-01-09T06:16:52.749Z,69.08
2019-01-09T06:19:56.577Z,68.87
2019-01-09T06:23:00.444Z,68.71
2019-01-09T06:26:04.345Z,68.90
2019-01-09T06:29:08.146Z,68.88
2019-01-09T06:32:11.920Z,69.35
2019-01-09T06:35:15.803Z,69.02
2019-01-09T06:38:19.695Z,69.21
2019-01-09T06:41:23.474Z,69.00
2019-01-09T06:44:27.367Z,69.07
2019-01-09T06:47:31.172Z,69.46
2019-01-09T06:50:35.018Z,69.21
2019-01-09T06:53:38.809Z,69.50
2019-01-09T06:56:42.594Z,69.09
2019-01-09T06:59:46.389Z,69.34
2019-01-09T07:02:50.213Z,68.97
2019-01-09T07:05:54.017Z,69.02
2019-01-09T07:08:57.825Z,68.87
2019-01-09T07:12:01.631Z,68.77
2019-01-09T07:15:11.284Z,69.02
2019-01-09T07:18:11.259Z,68.97
2019-01-09T07:21:15.060Z,68.81
2019-01-09T07:24:18.934Z,68.87
2019-01-09T07:27:22.751Z,68.87
2019-01-09T07:30:26.704Z,69.36
2019-01-09T07:33:30.511Z,69.27
2019-01-09T07:36:34.301Z,69.04
2019-01-09T07:39:38.173Z,69.17
2019-01-09T07:42:41.999Z,69.26
2019-01-09T07:45:45.786Z,69.43
2019-01-09T07:48:49.587Z,70.09
2019-01-09T07:51:53.400Z,70.15
2019-01-09T07:54:57.216Z,70.34
2019-01-09T07:58:01.092Z,70.48
2019-01-09T08:01:05.056Z,70.97
2019-01-09T08:04:08.859Z,70.23
2019-01-09T08:07:12.686Z,70.54
2019-01-09T08:10:16.492Z,70.87
2019-01-09T08:13:20.388Z,71.18
2019-01-09T08:16:24.246Z,71.01
2019-01-09T08:19:28.058Z,70.96
2019-01-09T08:22:31.853Z,70.88
2019-01-09T08:25:35.666Z,71.26
2019-01-09T08:28:39.463Z,70.98
2019-01-09T08:31:43.295Z,71.10
2019-01-09T08:34:47.081Z,71.35
2019-01-09T08:37:50.902Z,71.43
2019-01-09T08:40:54.770Z,71.14
2019-01-09T08:43:58.566Z,70.89
2019-01-09T08:47:02.369Z,70.84
2019-01-09T08:50:08.432Z,70.68
2019-01-09T08:53:12.314Z,70.66
2019-01-09T08:56:16.115Z,71.10
2019-01-09T08:59:19.926Z,70.61
2019-01-09T09:02:23.719Z,70.61
2019-01-09T09:05:27.520Z,70.65
2019-01-09T09:08:31.579Z,70.99
2019-01-09T09:11:35.460Z,70.71
2019-01-09T09:14:39.343Z,70.54
2019-01-09T09:17:43.290Z,70.61
2019-01-09T09:20:47.078Z,70.10
2019-01-09T09:23:50.898Z,70.06
2019-01-09T09:26:54.700Z,69.97
2019-01-09T09:29:58.499Z,70.51
2019-01-09T09:33:02.395Z,70.36
2019-01-09T09:36:06.257Z,69.43
2019-01-09T09:39:11.166Z,68.98
2019-01-09T09:42:14.974Z,69.13
2019-01-09T09:45:18.782Z,68.93
2019-01-09T09:48:22.571Z,68.52
2019-01-09T09:51:26.457Z,67.89
2019-01-09T09:54:30.298Z,67.58
2019-01-09T09:57:34.169Z,66.66
2019-01-09T10:00:38.065Z,66.13
2019-01-09T10:03:41.848Z,66.64
2019-01-09T10:06:45.684Z,67.79
2019-01-09T10:09:49.559Z,68.37
2019-01-09T10:12:53.443Z,68.41
2019-01-09T10:15:57.257Z,68.55
2019-01-09T10:19:01.104Z,68.22
2019-01-09T10:22:05.057Z,68.58
2019-01-09T10:25:09.027Z,69.07
2019-01-09T10:28:12.914Z,69.40
2019-01-09T10:31:16.787Z,69.46
2019-01-09T10:34:20.593Z,70.13
2019-01-09T10:37:24.557Z,69.61
2019-01-09T10:40:36.112Z,69.63
2019-01-09T10:43:34.058Z,69.54
2019-01-09T10:46:37.939Z,70.06
2019-01-09T10:49:41.820Z,70.10
2019-01-09T10:52:45.732Z,69.19
2019-01-09T10:55:49.597Z,69.81
2019-01-09T10:58:53.398Z,69.55
2019-01-09T11:01:57.190Z,69.90
2019-01-09T11:05:01.022Z,68.78
2019-01-09T11:08:04.884Z,69.19
2019-01-09T11:11:08.756Z,69.09
2019-01-09T11:14:12.614Z,69.58
2019-01-09T11:17:16.419Z,68.71
2019-01-09T11:20:21.413Z,68.54
2019-01-09T11:23:25.296Z,68.77
2019-01-09T11:26:29.097Z,68.90
2019-01-09T11:29:32.904Z,69.31
2019-01-09T11:32:36.813Z,69.05
2019-01-09T11:35:40.693Z,69.04
2019-01-09T11:38:44.552Z,69.47
2019-01-09T11:41:48.412Z,68.13
2019-01-09T11:44:52.216Z,68.58
2019-01-09T11:47:56.120Z,68.33
2019-01-09T11:50:59.928Z,67.33
2019-01-09T11:54:03.820Z,68.21
2019-01-09T11:57:07.711Z,67.76
2019-01-09T12:00:20.642Z,67.08
2019-01-09T12:03:24.424Z,67.39
2019-01-09T12:06:28.235Z,66.91
2019-01-09T12:09:32.149Z,67.44
2019-01-09T12:12:36.107Z,67.29
2019-01-09T12:15:39.923Z,66.86
2019-01-09T12:18:43.762Z,66.62
2019-01-09T12:21:47.699Z,67.34
2019-01-09T12:24:51.490Z,66.07
2019-01-09T12:27:55.302Z,65.65
2019-01-09T12:30:59.160Z,66.78
2019-01-09T12:34:03.050Z,66.23
2019-01-09T12:37:06.910Z,65.98
2019-01-09T12:40:11.190Z,65.59
2019-01-09T12:43:15.088Z,65.52
2019-01-09T12:46:18.901Z,66.27
2019-01-09T12:49:22.718Z,65.45
2019-01-09T12:52:26.642Z,65.78
2019-01-09T12:55:30.502Z,65.40
2019-01-09T12:58:34.301Z,65.35
2019-01-09T13:01:38.142Z,64.82
2019-01-09T13:04:42.065Z,64.45
2019-01-09T13:07:45.868Z,64.41
2019-01-09T13:10:49.699Z,64.81
2019-01-09T13:13:53.509Z,65.33
2019-01-09T13:16:57.333Z,65.57
2019-01-09T13:20:01.109Z,64.38
2019-01-09T13:23:04.949Z,64.75
2019-01-09T13:26:08.807Z,65.30
2019-01-09T13:29:12.608Z,64.40
2019-01-09T13:32:16.552Z,64.25
2019-01-09T13:35:20.474Z,64.97
2019-01-09T13:38:24.277Z,65.24
2019-01-09T13:41:28.103Z,65.49
2019-01-09T13:44:31.987Z,64.95
2019-01-09T13:47:35.803Z,64.60
2019-01-09T13:50:39.742Z,65.59
2019-01-09T13:53:43.659Z,65.68
2019-01-09T13:56:47.462Z,66.15
2019-01-09T13:59:51.269Z,65.93
2019-01-09T14:02:55.144Z,65.91
2019-01-09T14:05:59.009Z,66.59
2019-01-09T14:09:03.157Z,66.46
2019-01-09T14:12:07.026Z,66.56
2019-01-09T14:15:13.355Z,66.63
2019-01-09T14:18:17.196Z,67.04
2019-01-09T14:21:21.003Z,67.46
2019-01-09T14:24:24.910Z,67.64
2019-01-09T14:27:28.697Z,67.63
2019-01-09T14:30:32.602Z,67.30
2019-01-09T14:33:36.381Z,67.97
2019-01-09T14:36:40.261Z,67.46
2019-01-09T14:39:48.123Z,68.03
2019-01-09T14:42:49.678Z,68.19
2019-01-09T14:45:53.462Z,68.29
2019-01-09T14:48:57.292Z,68.03
2019-01-09T14:52:01.199Z,68.13
2019-01-09T14:55:06.190Z,68.53
2019-01-09T14:58:10.073Z,69.07
2019-01-09T15:01:13.958Z,69.02
2019-01-09T15:04:17.864Z,69.33
2019-01-09T15:07:21.749Z,69.43
2019-01-09T15:10:28.010Z,69.73
2019-01-09T15:13:31.862Z,69.94
2019-01-09T15:16:35.828Z,70.08
2019-01-09T15:19:39.808Z,70.11
2019-01-09T15:22:43.669Z,70.34
2019-01-09T15:25:49.045Z,70.94
2019-01-09T15:28:53.062Z,70.79
2019-01-09T15:31:56.880Z,70.70
2019-01-09T15:35:00.786Z,71.03
2019-01-09T15:38:04.763Z,71.43
2019-01-09T15:41:08.706Z,70.71
2019-01-09T15:44:12.527Z,70.68
2019-01-09T15:47:16.365Z,70.73
2019-01-09T15:50:21.135Z,70.85
2019-01-09T15:53:25.016Z,70.51
2019-01-09T15:56:28.930Z,70.57
2019-01-09T15:59:32.747Z,70.58
2019-01-09T16:02:36.599Z,70.45
2019-01-09T16:05:40.469Z,70.71
2019-01-09T16:08:44.300Z,71.01
2019-01-09T16:11:48.934Z,71.22
2019-01-09T16:14:52.813Z,71.09
2019-01-09T16:17:56.764Z,70.96
2019-01-09T16:21:00.653Z,71.10
2019-01-09T16:24:04.538Z,71.26
2019-01-09T16:27:08.352Z,70.99
2019-01-09T16:30:33.918Z,71.44
2019-01-09T16:33:33.301Z,71.37
2019-01-09T16:36:37.701Z,71.39
2019-01-09T16:39:41.585Z,71.46
2019-01-09T16:42:45.412Z,71.24
2019-01-09T16:45:49.362Z,71.38
2019-01-09T16:48:53.319Z,71.42
2019-01-09T16:51:57.143Z,71.67
2019-01-09T16:55:00.998Z,71.28
2019-01-09T16:58:05.161Z,71.34
2019-01-09T17:01:09.121Z,71.36
2019-01-09T17:04:12.989Z,71.43
2019-01-09T17:07:17.044Z,71.57
2019-01-09T17:10:20.999Z,71.66
2019-01-09T17:13:24.905Z,71.93
2019-01-09T17:16:28.726Z,72.00
2019-01-09T17:19:32.614Z,71.97
2019-01-09T17:22:36.481Z,71.78
2019-01-09T17:25:40.371Z,71.67
2019-01-09T17:28:44.619Z,71.96
2019-01-09T17:31:48.436Z,72.06
2019-01-09T17:34:52.229Z,72.22
2019-01-09T17:37:56.180Z,72.15
2019-01-09T17:40:59.979Z,72.00
2019-01-09T17:44:04.059Z,72.08
2019-01-09T17:47:07.918Z,72.20
2019-01-09T17:50:19.127Z,72.25
2019-01-09T17:53:23.035Z,72.35
2019-01-09T17:56:26.883Z,72.79
2019-01-09T17:59:32.647Z,72.81
2019-01-09T18:02:36.375Z,72.92
2019-01-09T18:05:40.174Z,73.22
2019-01-09T18:08:44.024Z,73.29
2019-01-09T18:11:47.841Z,73.17
2019-01-09T18:14:51.950Z,72.83
2019-01-09T18:17:55.921Z,73.20
2019-01-09T18:20:59.737Z,73.12
2019-01-09T18:24:03.697Z,73.19
2019-01-09T18:27:07.667Z,73.17
2019-01-09T18:30:20.550Z,73.22
2019-01-09T18:33:36.587Z,73.77
2019-01-09T18:36:56.821Z,73.23
2019-01-09T18:40:29.069Z,73.50
2019-01-09T18:43:42.738Z,74.18
2019-01-09T18:47:12.638Z,74.20
2019-01-09T18:50:50.642Z,73.79
2019-01-09T18:53:55.630Z,74.48
2019-01-09T18:56:59.518Z,74.54
2019-01-09T19:00:03.495Z,74.13
2019-01-09T19:03:07.616Z,74.32
2019-01-09T19:06:11.500Z,74.45
2019-01-09T19:09:15.460Z,74.50
2019-01-09T19:12:19.340Z,74.24
2019-01-09T19:15:23.325Z,74.63
2019-01-09T19:18:27.196Z,74.70
2019-01-09T19:21:31.159Z,74.78
2019-01-09T19:24:35.142Z,73.60
2019-01-09T19:27:39.109Z,73.51
2019-01-09T19:30:43.002Z,73.89
2019-01-09T19:33:46.953Z,74.04
2019-01-09T19:36:50.935Z,73.65
2019-01-09T19:39:54.948Z,73.18
2019-01-09T19:42:58.694Z,73.69
2019-01-09T19:46:02.655Z,74.35
2019-01-09T19:49:06.631Z,73.69
2019-01-09T19:52:10.500Z,73.81
2019-01-09T19:55:14.706Z,73.92
2019-01-09T19:58:18.585Z,74.38
2019-01-09T20:01:22.642Z,73.95
2019-01-09T20:04:26.607Z,74.29
2019-01-09T20:07:30.526Z,74.62
2019-01-09T20:10:34.490Z,74.43
2019-01-09T20:13:38.483Z,74.59
2019-01-09T20:16:42.433Z,75.28
2019-01-09T20:19:46.364Z,75.86
2019-01-09T20:22:51.661Z,75.49
2019-01-09T20:25:55.643Z,76.16
2019-01-09T20:28:59.471Z,76.42
2019-01-09T20:32:03.399Z,76.35
2019-01-09T20:35:07.696Z,76.32
2019-01-09T20:38:11.571Z,77.01
2019-01-09T20:41:15.521Z,76.90
2019-01-09T20:44:19.394Z,77.17
2019-01-09T20:47:23.376Z,76.99
2019-01-09T20:50:29.923Z,77.49
2019-01-09T20:53:33.872Z,77.61
2019-01-09T20:56:37.635Z,77.91
2019-01-09T20:59:42.633Z,78.18
2019-01-09T21:02:46.732Z,78.49
2019-01-09T21:05:52.629Z,78.48
2019-01-09T21:08:59.667Z,78.77
2019-01-09T21:12:02.117Z,78.60
2019-01-09T21:15:07.271Z,79.22
2019-01-09T21:18:11.232Z,79.08
2019-01-09T21:21:15.148Z,79.15
2019-01-09T21:24:19.184Z,79.57
2019-01-09T21:27:23.009Z,79.25
2019-01-09T21:30:26.923Z,79.21
2019-01-09T21:33:30.763Z,79.33
2019-01-09T21:36:34.720Z,79.54
2019-01-09T21:39:38.599Z,79.41
2019-01-09T21:42:42.485Z,79.38
2019-01-09T21:45:46.376Z,79.76
2019-01-09T21:48:50.168Z,80.18
2019-01-09T21:51:54.081Z,79.43
2019-01-09T21:54:57.908Z,79.88
2019-01-09T21:58:01.691Z,80.03
2019-01-09T22:01:05.635Z,80.25
2019-01-09T22:04:09.441Z,80.32
2019-01-09T22:07:15.329Z,80.79
2019-01-09T22:10:24.807Z,80.80
2019-01-09T22:13:28.719Z,80.88
2019-01-09T22:16:32.606Z,80.94
2019-01-09T22:19:36.495Z,80.94
2019-01-09T22:22:40.299Z,81.15
2019-01-09T22:25:44.283Z,81.05
2019-01-09T22:28:48.163Z,80.54
2019-01-09T22:31:52.046Z,81.09
2019-01-09T22:34:56.033Z,81.21
2019-01-09T22:37:59.966Z,81.41
2019-01-09T22:41:03.941Z,81.44
2019-01-09T22:44:07.752Z,82.08
2019-01-09T22:47:11.651Z,81.88
2019-01-09T22:50:20.653Z,82.04
2019-01-09T22:53:24.536Z,82.26
2019-01-09T22:56:28.423Z,82.10
2019-01-09T22:59:32.231Z,82.37
2019-01-09T23:02:36.107Z,82.48
2019-01-09T23:05:40.615Z,82.13
2019-01-09T23:08:44.485Z,81.82
2019-01-09T23:11:48.357Z,82.20
2019-01-09T23:14:52.238Z,82.52
2019-01-09T23:17:56.421Z,82.50
2019-01-09T23:21:00.281Z,82.47
2019-01-09T23:24:04.369Z,82.35
2019-01-09T23:27:08.229Z,81.98
2019-01-09T23:30:12.399Z,81.65
2019-01-09T23:33:16.359Z,81.87
2019-01-09T23:36:20.329Z,82.32
2019-01-09T23:39:24.187Z,82.41
2019-01-09T23:42:30.531Z,82.08
2019-01-09T23:45:33.631Z,82.49
2019-01-09T23:48:37.436Z,82.78
2019-01-09T23:51:41.389Z,82.88
2019-01-09T23:54:45.190Z,83.50
2019-01-09T23:57:48.996Z,83.54
